Time;durP1;ratioP1;P1;durP2;ratioP2;P2;SDS_P1;SDS_P2;PMS_P1;PMS_P2;Temp;Humidity;BMP_temperature;BMP_pressure;BME280_temperature;BME280_humidity;BME280_pressure;Samples;Min_cycle;Max_cycle;Signal;HPM_P1;HPM_P2
2023/05/16 00:00:41;;;;;;;9.60;1.52;;;;;;;10.52;64.76;101984.50;5030062;28;20088;-45
2023/05/16 00:03:10;;;;;;;2.78;0.82;;;;;;;10.50;64.77;101995.91;5031412;28;20057;-46
2023/05/16 00:05:37;;;;;;;4.57;0.85;;;;;;;10.48;65.06;101994.59;5013508;28;20467;-45
2023/05/16 00:08:05;;;;;;;3.53;1.17;;;;;;;10.45;65.25;102001.56;5031695;28;20478;-46
2023/05/16 00:10:31;;;;;;;5.78;1.10;;;;;;;10.42;65.06;101998.59;5030720;28;20132;-45
2023/05/16 00:13:00;;;;;;;6.03;1.17;;;;;;;10.37;65.37;102011.44;5030755;28;20077;-45
2023/05/16 00:15:28;;;;;;;5.25;1.10;;;;;;;10.39;65.39;101998.09;5030817;28;20065;-45
2023/05/16 00:17:59;;;;;;;4.18;0.90;;;;;;;10.37;65.53;102002.31;5013720;28;20054;-45
2023/05/16 00:20:26;;;;;;;2.20;0.68;;;;;;;10.34;65.38;101998.22;5031574;28;20052;-46
2023/05/16 00:22:54;;;;;;;2.15;0.75;;;;;;;10.32;65.60;102003.28;5031364;28;20041;-45
2023/05/16 00:25:22;;;;;;;4.20;0.95;;;;;;;10.29;65.70;101997.53;5028524;28;20042;-45
2023/05/16 00:27:49;;;;;;;4.65;1.73;;;;;;;10.22;65.77;101997.94;5031009;28;20084;-45
2023/05/16 00:30:16;;;;;;;6.30;1.20;;;;;;;10.20;66.19;102000.22;5031059;28;20152;-46
2023/05/16 00:32:42;;;;;;;5.10;1.38;;;;;;;10.14;66.05;102001.47;5030604;28;20051;-44
2023/05/16 00:35:10;;;;;;;4.05;1.67;;;;;;;10.14;66.35;101998.69;5030412;28;20058;-47
2023/05/16 00:37:37;;;;;;;5.78;1.30;;;;;;;10.14;66.47;102000.66;5031368;28;20148;-45
2023/05/16 00:40:05;;;;;;;2.65;0.75;;;;;;;10.13;66.27;101997.06;5030708;28;20442;-45
2023/05/16 00:42:32;;;;;;;5.28;0.98;;;;;;;10.12;66.45;101992.66;5031210;28;20055;-45
2023/05/16 00:44:59;;;;;;;6.85;1.25;;;;;;;10.08;66.44;101986.09;5030110;28;20050;-48
2023/05/16 00:47:26;;;;;;;3.33;1.33;;;;;;;10.04;66.47;101998.88;5029055;28;20060;-45
2023/05/16 00:49:53;;;;;;;8.50;1.40;;;;;;;9.99;66.78;101987.13;5031105;28;20045;-46
2023/05/16 00:52:20;;;;;;;3.03;1.35;;;;;;;9.98;66.85;101989.06;5030817;28;20058;-45
2023/05/16 00:54:46;;;;;;;3.13;1.05;;;;;;;9.95;66.80;102003.53;5030119;28;20045;-45
2023/05/16 00:57:15;;;;;;;2.25;0.95;;;;;;;9.94;67.05;101995.53;5030365;28;20045;-45
2023/05/16 00:59:45;;;;;;;5.90;2.20;;;;;;;9.90;66.99;102000.84;5030354;28;20160;-46
2023/05/16 01:02:12;;;;;;;6.80;1.25;;;;;;;9.87;67.05;101998.75;5029290;28;20507;-50
2023/05/16 01:04:41;;;;;;;1.67;0.90;;;;;;;9.83;67.10;101983.88;4999784;28;20052;-51
2023/05/16 01:07:08;;;;;;;5.72;1.25;;;;;;;9.80;67.31;101993.63;5029786;28;20122;-49
2023/05/16 01:09:35;;;;;;;3.42;1.48;;;;;;;9.80;67.42;101988.09;5030375;28;20149;-45
2023/05/16 01:12:20;;;;;;;3.90;0.98;;;;;;;9.79;67.57;101994.72;5029927;28;20045;-46
2023/05/16 01:14:56;;;;;;;4.53;1.23;;;;;;;9.78;67.60;101984.00;5029227;28;20076;-45
2023/05/16 01:17:35;;;;;;;34.33;4.28;;;;;;;9.76;67.73;101989.84;5030068;28;20482;-45
2023/05/16 01:20:20;;;;;;;17.95;3.40;;;;;;;9.74;67.75;101980.22;5030633;28;20048;-45
2023/05/16 01:22:59;;;;;;;3.63;1.10;;;;;;;9.70;67.77;101974.47;5029903;28;20057;-47
2023/05/16 01:25:53;;;;;;;5.47;1.13;;;;;;;9.69;67.95;101974.78;5029567;28;20107;-47
2023/05/16 01:28:21;;;;;;;5.00;1.33;;;;;;;9.64;67.93;101966.59;5017152;28;20144;-44
2023/05/16 01:30:50;;;;;;;6.18;3.97;;;;;;;9.62;68.13;101977.16;5030235;28;20137;-45
2023/05/16 01:33:17;;;;;;;4.72;1.58;;;;;;;9.59;68.10;101969.47;5029593;28;20128;-47
2023/05/16 01:36:02;;;;;;;4.32;2.00;;;;;;;9.55;68.47;101976.75;5027778;28;20044;-45
2023/05/16 01:38:40;;;;;;;3.97;1.40;;;;;;;9.57;68.41;101968.97;5030048;28;20088;-45
2023/05/16 01:41:29;;;;;;;5.38;1.85;;;;;;;9.54;68.50;101975.94;5030112;28;20053;-47
2023/05/16 01:44:03;;;;;;;5.03;1.20;;;;;;;9.49;68.69;101972.44;5029897;28;20037;-48
2023/05/16 01:46:37;;;;;;;4.70;1.20;;;;;;;9.46;68.47;101970.28;5029219;28;20095;-45
2023/05/16 01:49:28;;;;;;;1.60;0.70;;;;;;;9.40;68.83;101969.56;5029240;28;20484;-45
2023/05/16 01:52:00;;;;;;;5.32;1.48;;;;;;;9.43;68.44;101968.13;5027023;28;20042;-45
2023/05/16 01:54:30;;;;;;;;;;;;;;;9.41;68.65;101973.16;5029793;28;20092;-44
2023/05/16 01:56:59;;;;;;;4.13;1.17;;;;;;;9.39;68.37;101978.19;5027980;28;19921;-45
2023/05/16 01:59:27;;;;;;;4.05;1.83;;;;;;;9.36;68.67;101976.84;5029511;28;20141;-45
2023/05/16 02:01:58;;;;;;;5.15;1.27;;;;;;;9.35;68.79;101974.38;5029968;28;20056;-44
2023/05/16 02:04:25;;;;;;;3.13;0.95;;;;;;;9.31;68.74;101970.63;5029306;28;20466;-45
2023/05/16 02:06:52;;;;;;;3.55;1.00;;;;;;;9.28;69.06;101976.75;5027769;28;20054;-44
2023/05/16 02:09:19;;;;;;;2.33;1.35;;;;;;;9.23;69.19;101985.97;5029064;28;20414;-45
2023/05/16 02:11:46;;;;;;;4.60;1.77;;;;;;;9.21;69.19;101982.69;5029464;28;20049;-47
2023/05/16 02:14:13;;;;;;;7.45;2.15;;;;;;;9.19;69.29;101984.91;5028966;28;20049;-44
2023/05/16 02:16:40;;;;;;;3.05;1.55;;;;;;;9.15;69.44;101968.16;5028565;28;20080;-44
2023/05/16 02:19:07;;;;;;;5.43;2.00;;;;;;;9.16;69.50;101986.34;5028926;28;20442;-44
2023/05/16 02:21:33;;;;;;;4.45;1.35;;;;;;;9.12;69.52;101985.34;5027565;28;20061;-44
2023/05/16 02:24:00;;;;;;;4.57;1.27;;;;;;;9.11;69.64;101989.22;5029152;28;20851;-45
2023/05/16 02:26:27;;;;;;;4.63;1.30;;;;;;;9.10;69.64;101993.13;5010208;28;20076;-44
2023/05/16 02:28:54;;;;;;;4.32;1.38;;;;;;;9.08;69.72;101989.81;5028800;28;20065;-44
2023/05/16 02:31:31;;;;;;;8.85;1.10;;;;;;;9.08;69.82;101989.81;5028958;28;20045;-46
2023/05/16 02:33:59;;;;;;;4.07;0.95;;;;;;;9.04;69.86;101986.03;5016550;28;20043;-46
2023/05/16 02:36:26;;;;;;;3.78;1.15;;;;;;;9.05;69.88;101975.81;5027183;28;20136;-46
2023/05/16 02:38:53;;;;;;;5.20;1.40;;;;;;;8.99;69.89;101975.09;5028774;28;20072;-46
2023/05/16 02:41:21;;;;;;;7.72;1.15;;;;;;;8.98;69.93;101972.63;5027101;28;20041;-45
2023/05/16 02:43:48;;;;;;;3.10;1.08;;;;;;;8.97;70.12;101971.00;5028803;28;20041;-45
2023/05/16 02:46:23;;;;;;;4.10;1.00;;;;;;;8.93;70.35;101970.78;5027042;28;20454;-47
2023/05/16 02:48:50;;;;;;;5.28;1.05;;;;;;;8.92;70.33;101974.66;5029077;28;20041;-44
2023/05/16 02:51:20;;;;;;;5.95;1.40;;;;;;;8.97;70.36;101973.75;5028478;28;20133;-44
2023/05/16 02:53:47;;;;;;;4.60;1.30;;;;;;;8.96;70.43;101967.41;5027951;28;20057;-45
2023/05/16 02:56:14;;;;;;;8.15;1.63;;;;;;;8.95;70.31;101963.00;5027964;28;20049;-47
2023/05/16 02:58:42;;;;;;;6.53;1.40;;;;;;;8.90;70.37;101965.88;5028405;28;20491;-45
2023/05/16 03:01:08;;;;;;;4.22;1.38;;;;;;;8.88;70.55;101962.59;4923309;23;20066;-46
2023/05/16 03:03:36;;;;;;;5.32;1.80;;;;;;;8.87;70.51;101963.69;5008745;28;20060;-45
2023/05/16 03:06:03;;;;;;;8.50;1.40;;;;;;;8.84;70.73;101961.53;5008155;28;20112;-45
2023/05/16 03:08:30;;;;;;;5.85;1.10;;;;;;;8.81;70.69;101967.69;5009001;28;20046;-45
2023/05/16 03:10:57;;;;;;;3.35;1.00;;;;;;;8.79;70.92;101969.91;5008947;28;20062;-45
2023/05/16 03:13:23;;;;;;;3.53;1.90;;;;;;;8.76;70.83;101970.56;5008788;28;20100;-45
2023/05/16 03:15:52;;;;;;;4.82;1.67;;;;;;;8.75;71.02;101974.44;5007847;28;20054;-45
2023/05/16 03:18:19;;;;;;;3.90;1.35;;;;;;;8.71;71.23;101987.19;5008530;28;20089;-44
2023/05/16 03:20:46;;;;;;;4.50;1.73;;;;;;;8.67;71.18;101988.94;5008654;28;20076;-45
2023/05/16 03:23:12;;;;;;;5.38;1.25;;;;;;;8.64;71.47;101984.00;5008039;28;20049;-45
2023/05/16 03:25:41;;;;;;;7.40;2.03;;;;;;;8.64;71.65;101978.47;5008714;28;20117;-45
2023/05/16 03:28:08;;;;;;;3.63;0.95;;;;;;;8.67;71.55;101988.09;5007415;28;20034;-46
2023/05/16 03:30:35;;;;;;;1.50;1.05;;;;;;;8.60;71.48;101993.19;5007978;28;20045;-45
2023/05/16 03:33:03;;;;;;;4.97;1.20;;;;;;;8.60;71.57;101976.63;5008414;28;20054;-45
2023/05/16 03:35:31;;;;;;;4.82;1.55;;;;;;;8.60;71.64;101982.16;5008314;28;20411;-43
2023/05/16 03:37:58;;;;;;;9.32;3.45;;;;;;;8.57;71.70;101986.34;5007567;28;20046;-43
2023/05/16 03:40:25;;;;;;;3.67;1.42;;;;;;;8.54;72.02;101976.72;4990721;28;20512;-43
2023/05/16 03:42:52;;;;;;;6.65;1.98;;;;;;;8.53;72.13;101983.34;5007847;28;20483;-43
2023/05/16 03:45:19;;;;;;;6.88;1.35;;;;;;;8.53;72.03;101977.00;5008521;28;20053;-43
2023/05/16 03:47:48;;;;;;;6.78;1.33;;;;;;;8.55;72.06;101975.59;4989527;28;20141;-43
2023/05/16 03:50:15;;;;;;;5.18;1.15;;;;;;;8.56;71.93;101990.22;5008478;28;20084;-43
2023/05/16 03:52:42;;;;;;;11.80;1.38;;;;;;;8.54;71.67;101985.00;5008601;28;20149;-43
2023/05/16 03:55:10;;;;;;;5.93;1.40;;;;;;;8.52;71.91;101983.66;5008376;28;20157;-43
2023/05/16 03:57:37;;;;;;;6.00;1.55;;;;;;;8.54;71.95;101989.69;5007300;28;20274;-49
2023/05/16 04:00:07;;;;;;;10.45;1.55;;;;;;;8.48;72.06;101986.19;5008378;28;20045;-43
2023/05/16 04:02:34;;;;;;;4.20;1.30;;;;;;;8.43;72.27;101991.81;5008127;28;20080;-44
2023/05/16 04:05:02;;;;;;;2.42;2.10;;;;;;;8.44;72.16;101990.69;5007990;28;20066;-43
2023/05/16 04:07:28;;;;;;;4.22;0.85;;;;;;;8.45;72.13;101985.97;5007421;28;20483;-47
2023/05/16 04:09:57;;;;;;;4.28;1.15;;;;;;;8.46;72.11;101987.63;5008150;28;20495;-42
2023/05/16 04:12:24;;;;;;;7.72;1.30;;;;;;;8.42;72.34;101992.91;5008199;28;20079;-42
2023/05/16 04:14:51;;;;;;;6.15;2.67;;;;;;;8.43;72.15;101996.50;5009911;28;20061;-42
2023/05/16 04:17:17;;;;;;;6.70;2.28;;;;;;;8.41;72.07;101988.53;5011432;28;20430;-42
2023/05/16 04:19:44;;;;;;;2.80;1.20;;;;;;;8.38;72.08;101993.81;5011104;28;20042;-42
2023/05/16 04:22:11;;;;;;;10.90;3.17;;;;;;;8.35;72.09;101980.63;5011452;28;20195;-42
2023/05/16 04:24:38;;;;;;;4.20;1.25;;;;;;;8.33;72.14;101978.19;5011471;28;20045;-43
2023/05/16 04:27:10;;;;;;;5.93;1.98;;;;;;;8.32;71.95;101982.03;5011220;28;20034;-42
2023/05/16 04:29:37;;;;;;;6.47;1.45;;;;;;;8.31;71.95;101991.44;5010734;28;20132;-43
2023/05/16 04:32:05;;;;;;;4.30;1.90;;;;;;;8.32;71.85;101989.50;5011201;28;20068;-43
2023/05/16 04:34:36;;;;;;;9.10;1.77;;;;;;;8.26;71.99;101998.97;5011217;28;20042;-44
2023/05/16 04:37:07;;;;;;;1.65;1.17;;;;;;;8.19;72.03;102001.25;5011365;28;20042;-43
2023/05/16 04:39:35;;;;;;;3.03;1.83;;;;;;;8.06;72.18;101997.31;5006750;28;20100;-42
2023/05/16 04:42:03;;;;;;;3.28;1.38;;;;;;;7.99;72.40;102005.94;5009674;28;20455;-43
2023/05/16 04:44:30;;;;;;;6.30;1.73;;;;;;;7.91;72.39;101998.38;4993624;28;20057;-43
2023/05/16 04:46:57;;;;;;;3.42;1.10;;;;;;;7.85;72.54;101996.78;5011210;28;20133;-43
2023/05/16 04:49:24;;;;;;;7.50;1.95;;;;;;;7.90;72.66;102004.16;5011418;28;20500;-42
2023/05/16 04:51:51;;;;;;;4.80;1.85;;;;;;;7.85;72.77;102002.28;5010443;28;20454;-43
2023/05/16 04:54:18;;;;;;;8.77;1.40;;;;;;;7.82;73.23;102008.41;5010757;28;20050;-42
2023/05/16 04:56:44;;;;;;;2.28;1.13;;;;;;;7.79;73.32;102009.00;4993101;28;20157;-44
2023/05/16 04:59:11;;;;;;;3.72;1.60;;;;;;;7.76;73.23;102011.50;5010509;28;20064;-43
2023/05/16 05:01:38;;;;;;;7.28;1.17;;;;;;;7.71;73.25;102008.81;5009822;28;20081;-42
2023/05/16 05:04:05;;;;;;;2.80;1.30;;;;;;;7.71;73.63;102006.88;5010985;28;20053;-42
2023/05/16 05:06:32;;;;;;;3.22;1.27;;;;;;;7.77;73.53;102016.75;5010674;28;20042;-42
2023/05/16 05:08:59;;;;;;;3.08;1.40;;;;;;;7.71;73.65;102012.41;5010536;28;20116;-43
2023/05/16 05:11:26;;;;;;;6.32;1.50;;;;;;;7.71;73.37;102019.84;5009914;28;20530;-43
2023/05/16 05:13:53;;;;;;;6.22;1.55;;;;;;;7.72;73.67;102022.31;4993147;28;20054;-42
2023/05/16 05:16:20;;;;;;;3.78;1.60;;;;;;;7.74;73.75;102014.56;5010259;28;20049;-42
2023/05/16 05:18:47;;;;;;;5.53;1.48;;;;;;;7.75;73.71;102001.63;5010401;28;20050;-43
2023/05/16 05:21:14;;;;;;;5.03;1.50;;;;;;;7.79;73.83;102011.75;5009842;28;20052;-43
2023/05/16 05:23:40;;;;;;;5.43;1.95;;;;;;;7.86;73.63;102016.91;4993070;28;20502;-43
2023/05/16 05:26:07;;;;;;;5.68;1.30;;;;;;;7.82;74.04;102027.69;5010103;28;20526;-43
2023/05/16 05:28:35;;;;;;;6.60;1.83;;;;;;;7.82;73.97;102018.59;5010264;28;20046;-43
2023/05/16 05:31:04;;;;;;;3.92;1.35;;;;;;;7.81;74.35;102026.03;5009799;28;20045;-43
2023/05/16 05:33:31;;;;;;;3.67;1.52;;;;;;;7.85;74.01;102027.13;5010037;28;20034;-42
2023/05/16 05:35:58;;;;;;;3.88;1.50;;;;;;;7.86;74.19;102022.44;5010218;28;20084;-43
2023/05/16 05:38:26;;;;;;;7.18;1.67;;;;;;;7.87;74.42;102030.38;5010009;28;20049;-42
2023/05/16 05:40:53;;;;;;;3.53;1.63;;;;;;;7.91;74.40;102030.63;5008894;28;20447;-43
2023/05/16 05:43:20;;;;;;;2.60;1.30;;;;;;;7.98;74.53;102025.56;5010245;28;20138;-43
2023/05/16 05:45:46;;;;;;;5.80;2.47;;;;;;;8.01;74.66;102029.66;4992969;28;20141;-43
2023/05/16 05:48:13;;;;;;;4.38;1.60;;;;;;;8.03;74.60;102038.44;5009942;28;21305;-42
2023/05/16 05:50:40;;;;;;;5.78;1.60;;;;;;;8.04;74.65;102034.59;5009159;28;20634;-42
2023/05/16 05:53:07;;;;;;;11.75;2.35;;;;;;;8.07;74.66;102037.56;5009720;28;20064;-45
2023/05/16 05:55:34;;;;;;;8.23;2.28;;;;;;;8.11;74.84;102040.53;5010108;28;20068;-46
2023/05/16 05:58:02;;;;;;;3.22;1.80;;;;;;;8.19;74.81;102037.13;5010295;28;20038;-52
2023/05/16 06:00:32;;;;;;;7.32;2.00;;;;;;;8.30;74.98;102033.13;5009552;28;20057;-43
2023/05/16 06:02:59;;;;;;;7.00;3.33;;;;;;;8.37;74.82;102041.84;5010094;28;20492;-43
2023/05/16 06:05:26;;;;;;;6.57;3.05;;;;;;;8.42;74.74;102044.53;5009623;28;20053;-43
2023/05/16 06:07:53;;;;;;;10.35;3.20;;;;;;;8.52;74.80;102053.47;5006295;28;20643;-43
2023/05/16 06:10:20;;;;;;;6.38;2.78;;;;;;;8.61;74.77;102056.38;5009497;28;20108;-46
2023/05/16 06:12:47;;;;;;;8.23;2.33;;;;;;;8.70;75.01;102065.63;5009312;28;20046;-43
2023/05/16 06:15:14;;;;;;;7.50;2.42;;;;;;;8.80;74.92;102054.41;5009405;28;20049;-46
2023/05/16 06:17:41;;;;;;;5.28;2.55;;;;;;;8.88;74.74;102064.78;5009620;28;20077;-43
2023/05/16 06:20:08;;;;;;;10.57;1.80;;;;;;;8.95;74.72;102070.72;5009468;28;20038;-43
2023/05/16 06:22:35;;;;;;;12.05;2.78;;;;;;;9.03;75.02;102069.22;5008925;28;20045;-43
2023/05/16 06:25:02;;;;;;;12.07;2.53;;;;;;;9.03;74.93;102075.56;5009152;28;20042;-45
2023/05/16 06:27:29;;;;;;;14.35;4.93;;;;;;;9.05;74.99;102073.31;4991655;28;20054;-43
2023/05/16 06:29:56;;;;;;;11.77;2.25;;;;;;;9.13;74.94;102078.13;5009662;28;20443;-43
2023/05/16 06:32:23;;;;;;;5.63;2.22;;;;;;;9.22;74.99;102086.56;4991210;28;20081;-42
2023/05/16 06:34:50;;;;;;;12.30;2.50;;;;;;;9.29;75.03;102077.88;5005228;28;20515;-43
2023/05/16 06:37:17;;;;;;;10.88;2.88;;;;;;;9.35;75.05;102071.13;5008758;28;20571;-43
2023/05/16 06:39:44;;;;;;;11.70;2.90;;;;;;;9.41;75.10;102092.03;5009330;28;21009;-44
2023/05/16 06:42:11;;;;;;;10.10;2.38;;;;;;;9.46;74.94;102092.75;5005463;28;20136;-45
2023/05/16 06:44:38;;;;;;;5.97;2.50;;;;;;;9.53;75.20;102100.66;5009067;28;20042;-46
2023/05/16 06:47:05;;;;;;;4.63;2.60;;;;;;;9.61;75.01;102086.13;5008982;28;20554;-46
2023/05/16 06:49:33;;;;;;;7.03;2.50;;;;;;;9.69;74.98;102093.69;5009456;28;20124;-43
2023/05/16 06:51:59;;;;;;;5.63;2.42;;;;;;;9.74;75.01;102091.63;5008048;28;20100;-44
2023/05/16 06:54:26;;;;;;;9.15;2.78;;;;;;;9.80;74.95;102089.59;5008788;28;20053;-43
2023/05/16 06:56:53;;;;;;;29.63;4.20;;;;;;;9.86;74.95;102093.91;5008751;28;20100;-45
2023/05/16 06:59:20;;;;;;;21.88;4.88;;;;;;;9.90;75.02;102094.91;5008861;28;20104;-44
2023/05/16 07:01:47;;;;;;;8.52;2.78;;;;;;;10.01;75.01;102096.34;5007699;28;20340;-45
2023/05/16 07:04:14;;;;;;;9.07;4.32;;;;;;;10.10;74.85;102105.56;5008758;28;20045;-46
2023/05/16 07:06:41;;;;;;;9.55;3.00;;;;;;;10.17;74.97;102094.94;5008835;28;20042;-47
2023/05/16 07:09:08;;;;;;;11.93;3.35;;;;;;;10.27;74.88;102097.47;5008143;28;20052;-51
2023/05/16 07:11:35;;;;;;;10.38;3.25;;;;;;;10.36;75.09;102106.69;4999280;28;20080;-47
2023/05/16 07:14:01;;;;;;;10.60;4.03;;;;;;;10.45;74.91;102101.25;5008495;28;20074;-46
2023/05/16 07:16:29;;;;;;;13.88;3.40;;;;;;;10.55;74.94;102108.50;5007195;28;20132;-49
2023/05/16 07:18:58;;;;;;;17.92;3.85;;;;;;;10.67;75.18;102103.25;5008180;28;20057;-51
2023/05/16 07:21:25;;;;;;;11.98;3.53;;;;;;;10.79;75.32;102106.25;5008567;28;20107;-50
2023/05/16 07:23:52;;;;;;;12.50;4.13;;;;;;;10.90;75.22;102108.50;5008440;28;20045;-49
2023/05/16 07:26:21;;;;;;;10.20;4.15;;;;;;;11.01;75.42;102125.69;5002800;28;20041;-51
2023/05/16 07:28:49;;;;;;;10.50;3.28;;;;;;;11.13;75.56;102117.59;5004037;28;20466;-52
2023/05/16 07:31:16;;;;;;;14.27;3.17;;;;;;;11.25;75.90;102105.97;5008505;28;20426;-50
2023/05/16 07:33:45;;;;;;;12.77;4.13;;;;;;;11.36;76.38;102105.34;5008456;28;20113;-50
2023/05/16 07:36:12;;;;;;;13.95;3.97;;;;;;;11.48;76.99;102104.78;5006384;28;20060;-52
2023/05/16 07:38:43;;;;;;;13.50;3.33;;;;;;;11.58;77.48;102110.88;5007859;28;20553;-53
2023/05/16 07:41:10;;;;;;;11.85;4.55;;;;;;;11.73;77.95;102108.84;5007752;28;20049;-52
2023/05/16 07:43:37;;;;;;;11.60;3.92;;;;;;;11.84;78.63;102104.63;5008614;28;20057;-52
2023/05/16 07:46:04;;;;;;;14.82;3.25;;;;;;;12.01;79.33;102099.16;5007923;28;20077;-52
2023/05/16 07:48:31;;;;;;;11.57;3.53;;;;;;;12.19;80.02;102106.38;5008256;28;20509;-57
2023/05/16 07:50:58;;;;;;;12.25;4.07;;;;;;;12.42;80.74;102096.78;5010929;28;20046;-58
2023/05/16 07:53:25;;;;;;;18.60;4.50;;;;;;;12.68;81.17;102096.81;5012104;28;20058;-50
2023/05/16 07:55:52;;;;;;;15.88;4.47;;;;;;;12.99;81.64;102107.75;5011625;28;20038;-50
2023/05/16 07:58:19;;;;;;;14.35;4.47;;;;;;;13.41;81.79;102104.94;5011840;28;20046;-47
2023/05/16 08:00:46;;;;;;;11.95;3.78;;;;;;;13.92;81.76;102117.88;5009866;28;20065;-53
2023/05/16 08:03:13;;;;;;;17.65;5.90;;;;;;;14.56;79.98;102112.91;5012139;28;20057;-51
2023/05/16 08:05:40;;;;;;;22.30;5.43;;;;;;;15.32;77.68;102117.34;5011346;28;20073;-49
2023/05/16 08:08:07;;;;;;;17.75;3.63;;;;;;;16.04;75.05;102109.13;5010974;28;20049;-48
2023/05/16 08:10:33;;;;;;;10.38;3.63;;;;;;;16.81;72.36;102115.56;5010614;28;20038;-51
2023/05/16 08:13:00;;;;;;;16.08;4.60;;;;;;;17.46;69.41;102112.22;5011828;28;20050;-52
2023/05/16 08:15:27;;;;;;;14.10;3.70;;;;;;;17.82;66.62;102118.81;5011528;28;20491;-51
2023/05/16 08:17:58;;;;;;;12.00;4.05;;;;;;;18.35;64.43;102131.34;5011432;28;20100;-52
2023/05/16 08:20:25;;;;;;;8.70;3.42;;;;;;;18.76;61.98;102123.09;5010926;28;20476;-58
2023/05/16 08:22:53;;;;;;;12.18;4.55;;;;;;;19.18;59.82;102130.78;5018618;28;20500;-49
2023/05/16 08:25:20;;;;;;;15.43;4.65;;;;;;;19.55;58.06;102134.75;5011307;28;20038;-48
2023/05/16 08:27:49;;;;;;;12.90;4.50;;;;;;;19.79;56.57;102128.78;5011431;28;20491;-52
2023/05/16 08:30:16;;;;;;;10.90;3.97;;;;;;;20.08;55.54;102129.28;5010474;28;20149;-50
2023/05/16 08:32:43;;;;;;;10.48;3.90;;;;;;;20.34;54.45;102118.06;5010615;28;20041;-55
2023/05/16 08:35:10;;;;;;;14.25;4.93;;;;;;;20.70;52.74;102125.84;5011310;28;20538;-52
2023/05/16 08:37:37;;;;;;;17.02;4.72;;;;;;;20.94;51.76;102128.16;4994058;28;20092;-49
2023/05/16 08:40:09;;;;;;;10.45;3.53;;;;;;;21.15;50.73;102122.84;5010737;28;20141;-51
2023/05/16 08:42:37;;;;;;;10.13;4.03;;;;;;;21.38;49.46;102119.06;5011221;28;20209;-49
2023/05/16 08:45:05;;;;;;;12.88;4.03;;;;;;;21.46;48.77;102115.16;5011046;28;20488;-56
2023/05/16 08:47:33;;;;;;;14.77;4.65;;;;;;;21.64;48.45;102121.78;5011127;28;20046;-53
2023/05/16 08:50:02;;;;;;;11.43;4.82;;;;;;;21.85;48.00;102128.44;5011042;28;20042;-53
2023/05/16 08:52:32;;;;;;;11.77;4.68;;;;;;;22.05;46.94;102120.59;5009023;28;20111;-56
2023/05/16 08:55:06;;;;;;;12.70;4.18;;;;;;;22.18;46.28;102126.72;4998726;28;20060;-55
2023/05/16 08:57:38;;;;;;;17.10;4.25;;;;;;;22.24;45.55;102130.81;5010576;28;20133;-51
2023/05/16 09:00:10;;;;;;;9.65;3.65;;;;;;;22.43;45.34;102125.69;5010218;28;20115;-52
2023/05/16 09:02:40;;;;;;;14.23;4.03;;;;;;;22.78;44.53;102122.31;5009794;28;20057;-55
2023/05/16 09:05:10;;;;;;;13.05;3.88;;;;;;;22.98;43.48;102125.66;5011096;28;20120;-50
2023/05/16 09:07:37;;;;;;;10.10;4.22;;;;;;;22.97;42.85;102121.19;5010770;28;20041;-51
2023/05/16 09:10:05;;;;;;;11.02;4.63;;;;;;;22.61;42.86;102119.38;5010631;28;20057;-52
2023/05/16 09:12:33;;;;;;;11.43;3.83;;;;;;;22.25;43.38;102107.03;5010126;28;20132;-52
2023/05/16 09:15:05;;;;;;;19.70;4.55;;;;;;;22.14;43.39;102118.22;5010352;28;20057;-49
2023/05/16 09:17:39;;;;;;;10.52;3.47;;;;;;;22.28;43.15;102112.69;5010347;28;20072;-55
2023/05/16 09:20:09;;;;;;;11.80;3.67;;;;;;;22.28;42.12;102112.69;5010637;28;20052;-53
2023/05/16 09:22:37;;;;;;;15.15;4.07;;;;;;;21.78;42.47;102116.28;5017427;28;20045;-51
2023/05/16 09:25:04;;;;;;;9.90;3.95;;;;;;;21.55;41.80;102115.66;5010187;28;20112;-48
2023/05/16 09:27:40;;;;;;;12.43;3.97;;;;;;;20.96;42.91;102108.09;5008152;28;20081;-56
2023/05/16 09:30:07;;;;;;;11.15;3.45;;;;;;;21.09;42.52;102107.50;5006244;28;20069;-58
2023/05/16 09:32:34;;;;;;;13.25;3.75;;;;;;;21.61;42.18;102108.44;5009734;28;20046;-53
2023/05/16 09:35:01;;;;;;;10.38;3.50;;;;;;;22.00;41.46;102115.28;5010096;28;20045;-54
2023/05/16 09:37:29;;;;;;;15.00;3.83;;;;;;;21.87;41.42;102119.59;4992618;28;20436;-52
2023/05/16 09:39:56;;;;;;;12.98;3.83;;;;;;;21.40;41.92;102117.50;5009559;28;20042;-53
2023/05/16 09:42:24;;;;;;;13.15;3.13;;;;;;;21.32;42.04;102117.78;5009348;28;20052;-52
2023/05/16 09:44:55;;;;;;;14.98;3.72;;;;;;;21.39;41.56;102115.06;5009962;28;20046;-56
2023/05/16 09:47:21;;;;;;;7.90;3.42;;;;;;;21.81;41.31;102123.97;5010042;28;20034;-53
2023/05/16 09:49:52;;;;;;;11.32;3.50;;;;;;;22.27;40.72;102128.00;5010014;28;20076;-52
2023/05/16 09:52:21;;;;;;;14.10;3.60;;;;;;;22.64;40.26;102129.88;5009257;28;20045;-53
2023/05/16 09:54:48;;;;;;;10.45;3.08;;;;;;;22.42;40.09;102124.06;5009499;28;20080;-50
2023/05/16 09:57:22;;;;;;;13.90;3.92;;;;;;;21.90;41.08;102123.66;5009843;28;20099;-51
2023/05/16 09:59:49;;;;;;;13.70;4.32;;;;;;;21.82;41.18;102122.75;5009523;28;20514;-51
2023/05/16 10:02:16;;;;;;;15.18;3.55;;;;;;;21.44;41.35;102112.72;5007661;28;20731;-54
2023/05/16 10:04:43;;;;;;;10.23;3.53;;;;;;;21.74;41.67;102113.41;4992094;28;20046;-50
2023/05/16 10:07:12;;;;;;;12.50;3.50;;;;;;;22.28;40.61;102114.69;5009453;28;20373;-50
2023/05/16 10:09:40;;;;;;;15.95;3.55;;;;;;;21.78;40.70;102121.91;4992368;28;20136;-49
2023/05/16 10:12:11;;;;;;;14.02;4.43;;;;;;;21.21;40.45;102115.66;5007722;28;20049;-51
2023/05/16 10:14:40;;;;;;;11.10;4.10;;;;;;;20.19;41.99;102119.00;5009361;28;20046;-48
2023/05/16 10:17:13;;;;;;;10.95;4.20;;;;;;;20.37;42.51;102112.50;5009191;28;20144;-53
2023/05/16 10:19:40;;;;;;;15.60;3.88;;;;;;;20.97;41.63;102110.50;5009504;28;20050;-52
2023/05/16 10:22:10;;;;;;;13.43;3.28;;;;;;;21.15;41.71;102116.41;5009921;28;20045;-52
2023/05/16 10:25:06;;;;;;;12.52;3.25;;;;;;;21.20;41.03;102116.06;5009571;28;20527;-48
2023/05/16 10:27:35;;;;;;;10.18;3.20;;;;;;;20.81;41.57;102118.34;4984157;28;20046;-53
2023/05/16 10:30:04;;;;;;;7.35;3.17;;;;;;;20.14;42.63;102111.72;5006550;28;20053;-55
2023/05/16 10:32:32;;;;;;;11.23;4.38;;;;;;;19.45;43.78;102124.16;5005149;28;20097;-56
2023/05/16 10:35:02;;;;;;;11.40;2.97;;;;;;;18.88;45.15;102118.53;5009309;28;20073;-58
2023/05/16 10:37:31;;;;;;;11.73;3.60;;;;;;;19.00;45.04;102115.56;4992563;28;20034;-54
2023/05/16 10:40:00;;;;;;;15.75;4.20;;;;;;;19.10;44.94;102123.41;5009023;28;20046;-49
2023/05/16 10:42:26;;;;;;;12.77;4.25;;;;;;;19.00;44.97;102122.00;4990674;28;20041;-52
2023/05/16 10:44:55;;;;;;;12.38;3.55;;;;;;;19.16;45.13;102122.75;5009032;28;20038;-55
2023/05/16 10:47:31;;;;;;;13.05;5.05;;;;;;;19.42;44.65;102110.84;5000086;28;20561;-50
2023/05/16 10:49:58;;;;;;;11.98;4.55;;;;;;;19.50;45.03;102121.03;5009430;28;20050;-53
2023/05/16 10:52:36;;;;;;;12.23;2.90;;;;;;;19.56;44.98;102121.53;5008946;28;20459;-51
2023/05/16 10:55:06;;;;;;;13.48;3.60;;;;;;;19.22;45.27;102126.06;5008809;28;20104;-54
2023/05/16 10:57:35;;;;;;;8.77;3.33;;;;;;;19.15;45.52;102115.50;5008409;28;20056;-49
2023/05/16 11:00:06;;;;;;;6.53;3.58;;;;;;;19.10;45.47;102112.16;5009093;28;20056;-54
2023/05/16 11:02:40;;;;;;;9.23;3.50;;;;;;;18.80;45.87;102125.97;5008921;28;20096;-52
2023/05/16 11:05:12;;;;;;;16.67;4.65;;;;;;;18.62;45.83;102122.78;5008741;28;20574;-52
2023/05/16 11:07:39;;;;;;;8.52;4.28;;;;;;;18.34;46.25;102113.69;4989587;28;20037;-47
2023/05/16 11:10:08;;;;;;;11.15;3.53;;;;;;;18.16;46.32;102118.06;4991543;28;20053;-48
2023/05/16 11:12:43;;;;;;;9.73;3.08;;;;;;;18.26;46.61;102117.50;5008853;28;20037;-50
2023/05/16 11:15:23;;;;;;;6.93;2.92;;;;;;;18.35;46.14;102104.09;5009077;28;20072;-49
2023/05/16 11:18:06;;;;;;;9.13;3.03;;;;;;;18.20;46.31;102107.75;4987574;28;20593;-51
2023/05/16 11:20:33;;;;;;;;;;;;;;;17.94;46.96;102108.31;5009650;28;20074;-48
2023/05/16 11:23:15;;;;;;;7.80;3.25;;;;;;;17.95;47.11;102089.53;5008823;28;19929;-50
2023/05/16 11:25:44;;;;;;;;;;;;;;;17.92;46.97;102090.25;5013206;28;20484;-49
2023/05/16 11:28:15;;;;;;;8.93;3.25;;;;;;;17.76;47.60;102089.44;5012725;28;19971;-49
2023/05/16 11:30:44;;;;;;;12.70;4.18;;;;;;;17.77;47.90;102094.66;4981406;28;20709;-49
2023/05/16 11:33:14;;;;;;;10.63;3.38;;;;;;;17.97;47.90;102098.38;5010968;28;20045;-52